Ljubljana, Slovenia
Current Conditions -  °F | °C
As of 10:30 PM on Monday 22 Dec 2014 (Local Time) from LJLJ Reporting Station
Clear Clear  
Wind Chill: 32°   Ceiling: Unl
Heat Index: 32°   Visibility: 6mi
Dew Point: 30°   Wind: 1mph
Humidity: 93%   Direction: NA
Pressure: 30.3"   Gusts: NA
Location:  46.06°N, 14.51°E
Report Text: LJLJ 222030Z VRB01KT CAVOK 00/M01 Q1026 NOSIG
Loading
Personal Weather Stations






























Interactive Weather Map New forecast layout! Learn more

10-Day Weather Forecast

Advertisements
Track Severe Weather on mobile